createdAt,value
2022-08-16T00:01:26.397Z,26.76
2022-08-16T00:03:54.874Z,25.77
2022-08-16T00:06:23.655Z,25.41
2022-08-16T00:08:52.699Z,26.37
2022-08-16T00:11:21.814Z,27.15
2022-08-16T00:13:54.312Z,27.59
2022-08-16T00:17:00.988Z,27.58
2022-08-16T00:19:18.740Z,26.36
2022-08-16T00:21:47.112Z,25.37
2022-08-16T00:24:32.660Z,25.54
2022-08-16T00:27:04.098Z,26.53
2022-08-16T00:29:32.984Z,27.10
2022-08-16T00:32:06.300Z,27.43
2022-08-16T00:34:43.358Z,27.37
2022-08-16T00:37:24.815Z,26.23
2022-08-16T00:39:58.314Z,25.20
2022-08-16T00:42:32.017Z,24.86
2022-08-16T00:45:27.319Z,25.94
2022-08-16T00:47:56.360Z,26.83
2022-08-16T00:50:35.897Z,27.01
2022-08-16T00:53:13.641Z,26.05
2022-08-16T00:55:51.994Z,24.96
2022-08-16T00:58:34.636Z,24.61
2022-08-16T01:01:08.431Z,25.77
2022-08-16T01:03:41.913Z,26.50
2022-08-16T01:06:39.984Z,26.69
2022-08-16T01:09:06.193Z,25.68
2022-08-16T01:11:54.151Z,24.73
2022-08-16T01:14:39.941Z,24.49
2022-08-16T01:17:15.440Z,25.73
2022-08-16T01:19:56.986Z,26.48
2022-08-16T01:23:08.722Z,26.61
2022-08-16T01:25:45.876Z,25.30
2022-08-16T01:28:30.921Z,24.23
2022-08-16T01:31:00.708Z,24.03
2022-08-16T01:33:33.417Z,25.10
2022-08-16T01:36:12.319Z,26.08
2022-08-16T01:38:49.082Z,26.65
2022-08-16T01:41:30.927Z,26.70
2022-08-16T01:44:00.788Z,25.72
2022-08-16T01:46:40.701Z,24.78
2022-08-16T01:49:22.511Z,24.51
2022-08-16T01:51:57.741Z,25.68
2022-08-16T01:54:31.262Z,26.53
2022-08-16T01:57:02.166Z,26.99
2022-08-16T01:59:32.664Z,26.89
2022-08-16T02:02:01.052Z,25.81
2022-08-16T02:04:48.318Z,24.75
2022-08-16T02:07:23.567Z,24.41
2022-08-16T02:09:58.577Z,25.50
2022-08-16T02:12:49.589Z,26.30
2022-08-16T02:15:25.532Z,26.73
2022-08-16T02:17:56.483Z,26.33
2022-08-16T02:20:26.299Z,25.18
2022-08-16T02:22:56.517Z,24.60
2022-08-16T02:25:25.475Z,25.46
2022-08-16T02:28:17.414Z,26.27
2022-08-16T02:30:50.949Z,26.67
2022-08-16T02:33:24.314Z,27.00
2022-08-16T02:35:58.259Z,27.10
2022-08-16T02:38:31.577Z,26.24
2022-08-16T02:41:02.746Z,25.03
2022-08-16T02:43:38.285Z,24.47
2022-08-16T02:46:08.498Z,25.28
2022-08-16T02:48:39.083Z,25.95
2022-08-16T02:51:11.580Z,26.37
2022-08-16T02:53:48.164Z,26.63
2022-08-16T02:56:18.992Z,26.86
2022-08-16T02:58:50.734Z,26.76
2022-08-16T03:01:33.793Z,25.66
2022-08-16T03:04:39.205Z,24.47
2022-08-16T03:06:57.314Z,24.25
2022-08-16T03:09:28.830Z,25.26
2022-08-16T03:12:02.480Z,25.93
2022-08-16T03:14:31.485Z,26.36
2022-08-16T03:17:01.876Z,26.71
2022-08-16T03:19:46.770Z,26.91
2022-08-16T03:22:19.540Z,26.31
2022-08-16T03:25:00.822Z,25.09
2022-08-16T03:27:33.555Z,24.55
2022-08-16T03:30:16.556Z,25.46
2022-08-16T03:32:51.814Z,26.32
2022-08-16T03:35:33.449Z,26.77
2022-08-16T03:38:32.918Z,27.04
2022-08-16T03:40:56.355Z,26.82
2022-08-16T03:43:51.561Z,25.69
2022-08-16T03:46:13.552Z,24.96
2022-08-16T03:49:01.896Z,25.85
2022-08-16T03:51:29.776Z,26.45
2022-08-16T03:54:01.191Z,26.85
2022-08-16T03:56:30.372Z,27.15
2022-08-16T03:58:59.718Z,27.09
2022-08-16T04:01:29.886Z,26.10
2022-08-16T04:03:58.272Z,25.08
2022-08-16T04:06:27.777Z,24.69
2022-08-16T04:08:55.626Z,25.65
2022-08-16T04:11:24.789Z,26.41
2022-08-16T04:14:01.188Z,26.87
2022-08-16T04:16:41.410Z,27.15
2022-08-16T04:19:09.142Z,27.09
2022-08-16T04:21:45.963Z,26.03
2022-08-16T04:24:15.790Z,24.76
2022-08-16T04:26:46.537Z,25.22
2022-08-16T04:29:23.811Z,25.97
2022-08-16T04:31:56.671Z,26.33
2022-08-16T04:34:30.632Z,26.39
2022-08-16T04:37:01.472Z,26.23
2022-08-16T04:39:37.145Z,26.44
2022-08-16T04:42:26.246Z,26.42
2022-08-16T04:44:58.525Z,26.55
2022-08-16T04:47:33.238Z,26.75
2022-08-16T04:50:14.482Z,26.99
2022-08-16T04:52:46.911Z,26.91
2022-08-16T04:55:20.209Z,25.84
2022-08-16T04:57:53.540Z,24.77
2022-08-16T05:00:30.615Z,24.50
2022-08-16T05:03:12.924Z,25.83
2022-08-16T05:05:45.460Z,26.74
2022-08-16T05:08:28.367Z,27.06
2022-08-16T05:11:03.661Z,27.26
2022-08-16T05:13:40.937Z,27.18
2022-08-16T05:16:24.331Z,25.97
2022-08-16T05:18:56.621Z,24.73
2022-08-16T05:21:38.335Z,24.40
2022-08-16T05:24:09.058Z,25.90
2022-08-16T05:26:43.204Z,26.80
2022-08-16T05:29:15.158Z,27.22
2022-08-16T05:31:47.907Z,27.26
2022-08-16T05:34:20.011Z,26.24
2022-08-16T05:36:53.111Z,25.17
2022-08-16T05:39:22.294Z,24.96
2022-08-16T05:41:52.441Z,26.28
2022-08-16T05:44:25.349Z,27.19
2022-08-16T05:47:01.471Z,27.37
2022-08-16T05:49:38.571Z,26.32
2022-08-16T05:52:13.448Z,25.20
2022-08-16T05:54:47.243Z,25.00
2022-08-16T05:57:19.091Z,26.27
2022-08-16T05:59:50.653Z,27.13
2022-08-16T06:02:33.226Z,27.59
2022-08-16T06:05:02.505Z,27.57
2022-08-16T06:07:32.320Z,26.46
2022-08-16T06:10:01.836Z,25.38
2022-08-16T06:12:31.324Z,25.18
2022-08-16T06:15:09.761Z,26.50
2022-08-16T06:17:42.487Z,27.29
2022-08-16T06:20:25.591Z,27.02
2022-08-16T06:23:11.632Z,25.58
2022-08-16T06:25:53.232Z,25.03
2022-08-16T06:28:35.024Z,26.08
2022-08-16T06:31:06.705Z,26.69
2022-08-16T06:33:40.248Z,26.87
2022-08-16T06:36:14.182Z,26.12
2022-08-16T06:38:55.486Z,25.00
2022-08-16T06:41:27.359Z,24.99
2022-08-16T06:43:56.726Z,26.18
2022-08-16T06:46:35.257Z,26.98
2022-08-16T06:49:10.810Z,27.11
2022-08-16T06:51:48.435Z,25.92
2022-08-16T06:54:17.400Z,24.73
2022-08-16T06:56:45.958Z,24.47
2022-08-16T06:59:14.089Z,25.81
2022-08-16T07:01:45.152Z,26.77
2022-08-16T07:04:33.337Z,26.92
2022-08-16T07:07:06.340Z,25.73
2022-08-16T07:09:38.219Z,24.62
2022-08-16T07:12:07.285Z,24.61
2022-08-16T07:14:35.436Z,25.83
2022-08-16T07:17:08.126Z,26.41
2022-08-16T07:20:03.907Z,26.47
2022-08-16T07:22:38.971Z,25.08
2022-08-16T07:25:11.799Z,25.43
2022-08-16T07:27:41.801Z,26.36
2022-08-16T07:30:38.948Z,26.12
2022-08-16T07:33:07.033Z,24.96
2022-08-16T07:35:36.398Z,24.97
2022-08-16T07:38:06.486Z,25.97
2022-08-16T07:41:00.313Z,26.46
2022-08-16T07:43:28.918Z,25.70
2022-08-16T07:45:57.475Z,24.51
2022-08-16T07:48:27.108Z,24.51
2022-08-16T07:50:59.555Z,25.61
2022-08-16T07:53:32.270Z,26.25
2022-08-16T07:56:01.017Z,26.51
2022-08-16T07:58:36.215Z,26.84
2022-08-16T08:01:10.318Z,26.07
2022-08-16T08:03:48.307Z,24.88
2022-08-16T08:06:25.003Z,24.41
2022-08-16T08:08:57.191Z,25.26
2022-08-16T08:11:30.011Z,25.99
2022-08-16T08:14:03.781Z,26.76
2022-08-16T08:16:35.768Z,27.10
2022-08-16T08:19:04.590Z,26.43
2022-08-16T08:21:58.572Z,25.26
2022-08-16T08:24:32.252Z,24.63
2022-08-16T08:27:03.943Z,25.78
2022-08-16T08:29:37.280Z,26.58
2022-08-16T08:32:58.311Z,27.00
2022-08-16T08:35:03.423Z,27.23
2022-08-16T08:37:55.453Z,27.47
2022-08-16T08:40:27.346Z,27.33
2022-08-16T08:43:00.957Z,25.97
2022-08-16T08:45:52.469Z,24.78
2022-08-16T08:48:33.318Z,24.50
2022-08-16T08:51:10.336Z,25.83
2022-08-16T08:53:39.805Z,26.78
2022-08-16T08:56:23.090Z,27.23
2022-08-16T08:58:58.203Z,27.48
2022-08-16T09:01:36.882Z,26.78
2022-08-16T09:04:14.886Z,25.50
2022-08-16T09:06:46.146Z,24.99
2022-08-16T09:09:17.023Z,25.90
2022-08-16T09:11:53.514Z,26.60
2022-08-16T09:14:34.255Z,26.93
2022-08-16T09:17:11.831Z,26.98
2022-08-16T09:19:53.891Z,26.03
2022-08-16T09:22:28.173Z,25.27
2022-08-16T09:24:56.805Z,25.98
2022-08-16T09:27:57.084Z,26.48
2022-08-16T09:30:33.427Z,26.82
2022-08-16T09:33:18.288Z,27.07
2022-08-16T09:35:53.786Z,27.22
2022-08-16T09:38:31.891Z,27.04
2022-08-16T09:41:06.084Z,25.94
2022-08-16T09:43:58.702Z,25.35
2022-08-16T09:46:45.215Z,26.21
2022-08-16T09:49:19.923Z,26.81
2022-08-16T09:51:54.572Z,27.14
2022-08-16T09:54:32.343Z,27.38
2022-08-16T09:57:03.026Z,27.29
2022-08-16T09:59:38.266Z,26.29
2022-08-16T10:02:26.543Z,25.56
2022-08-16T10:04:58.247Z,26.36
2022-08-16T10:07:44.332Z,26.97
2022-08-16T10:10:18.900Z,27.18
2022-08-16T10:13:12.737Z,27.30
2022-08-16T10:15:55.103Z,27.41
2022-08-16T10:19:02.320Z,27.29
2022-08-16T10:21:11.548Z,26.26
2022-08-16T10:23:40.558Z,25.69
2022-08-16T10:27:19.389Z,26.45
2022-08-16T10:29:01.428Z,27.20
2022-08-16T10:31:44.344Z,27.60
2022-08-16T10:34:31.298Z,27.71
2022-08-16T10:37:02.151Z,27.82
2022-08-16T10:39:32.943Z,27.96
2022-08-16T10:42:13.330Z,28.20
2022-08-16T10:44:42.254Z,27.95
2022-08-16T10:47:11.911Z,26.98
2022-08-16T10:49:39.768Z,27.17
2022-08-16T10:52:18.610Z,27.62
2022-08-16T10:57:35.178Z,28.21
2022-08-16T11:00:21.084Z,27.71
2022-08-16T11:03:00.577Z,26.61
2022-08-16T11:08:31.274Z,27.59
2022-08-16T11:11:11.800Z,28.05
2022-08-16T11:13:59.774Z,28.07
2022-08-16T11:19:19.258Z,26.37
2022-08-16T11:24:42.239Z,27.43
2022-08-16T11:27:21.209Z,27.53
2022-08-16T11:29:57.066Z,27.85
2022-08-16T11:32:32.443Z,28.15
2022-08-16T11:35:14.138Z,28.21
2022-08-16T11:38:23.510Z,28.01
2022-08-16T11:40:57.499Z,26.91
2022-08-16T11:43:34.153Z,25.98
2022-08-16T11:46:45.100Z,26.08
2022-08-16T11:48:58.234Z,27.20
2022-08-16T11:51:25.960Z,27.90
2022-08-16T11:53:53.732Z,28.23
2022-08-16T11:56:29.940Z,28.37
2022-08-16T11:59:10.652Z,27.76
2022-08-16T12:01:54.846Z,26.78
2022-08-16T12:04:24.489Z,26.99
2022-08-16T12:06:54.592Z,27.78
2022-08-16T12:09:24.951Z,28.32
2022-08-16T12:12:02.963Z,28.61
2022-08-16T12:14:35.403Z,28.42
2022-08-16T12:17:08.232Z,27.48
2022-08-16T12:19:36.544Z,27.00
2022-08-16T12:22:19.065Z,27.78
2022-08-16T12:24:52.118Z,28.49
2022-08-16T12:27:24.285Z,28.43
2022-08-16T12:29:54.010Z,27.53
2022-08-16T12:32:38.001Z,27.05
2022-08-16T12:35:16.477Z,27.83
2022-08-16T12:37:47.324Z,28.41
2022-08-16T12:40:25.088Z,28.63
2022-08-16T12:43:00.731Z,27.72
2022-08-16T12:45:37.363Z,26.79
2022-08-16T12:48:33.974Z,26.56
2022-08-16T12:51:20.043Z,27.66
2022-08-16T12:53:56.252Z,28.38
2022-08-16T12:56:31.278Z,28.47
2022-08-16T12:59:03.269Z,27.46
2022-08-16T13:01:34.766Z,26.78
2022-08-16T13:04:21.358Z,27.44
2022-08-16T13:06:53.303Z,28.13
2022-08-16T13:09:26.585Z,28.53
2022-08-16T13:12:19.452Z,28.81
2022-08-16T13:14:50.147Z,28.50
2022-08-16T13:17:26.509Z,27.47
2022-08-16T13:20:13.712Z,26.84
2022-08-16T13:22:46.202Z,27.53
2022-08-16T13:25:21.814Z,28.03
2022-08-16T13:28:01.556Z,28.32
2022-08-16T13:30:41.461Z,28.50
2022-08-16T13:33:18.941Z,28.10
2022-08-16T13:35:55.936Z,26.68
2022-08-16T13:38:28.186Z,25.88
2022-08-16T13:41:02.526Z,26.55
2022-08-16T13:43:32.859Z,27.04
2022-08-16T13:46:05.057Z,27.12
2022-08-16T13:48:42.624Z,26.93
2022-08-16T13:51:18.737Z,27.02
2022-08-16T13:53:59.124Z,27.17
2022-08-16T13:56:37.771Z,27.32
2022-08-16T13:59:20.427Z,26.33
2022-08-16T14:01:55.211Z,25.44
2022-08-16T14:04:31.201Z,25.87
2022-08-16T14:07:03.549Z,26.18
2022-08-16T14:09:33.083Z,26.41
2022-08-16T14:12:09.918Z,26.66
2022-08-16T14:14:48.764Z,26.72
2022-08-16T14:17:20.738Z,26.67
2022-08-16T14:19:51.298Z,26.80
2022-08-16T14:22:31.518Z,26.99
2022-08-16T14:25:03.358Z,27.13
2022-08-16T14:27:36.100Z,27.46
2022-08-16T14:30:11.314Z,27.36
2022-08-16T14:32:46.500Z,26.36
2022-08-16T14:35:36.632Z,25.76
2022-08-16T14:38:18.390Z,26.43
2022-08-16T14:40:55.138Z,26.99
2022-08-16T14:43:26.065Z,27.37
2022-08-16T14:46:01.274Z,27.43
2022-08-16T14:48:29.825Z,26.51
2022-08-16T14:50:58.653Z,25.97
2022-08-16T14:53:27.808Z,26.52
2022-08-16T14:55:55.876Z,26.83
2022-08-16T14:58:34.739Z,27.42
2022-08-16T15:01:09.859Z,27.19
2022-08-16T15:03:44.677Z,26.29
2022-08-16T15:06:14.301Z,26.07
2022-08-16T15:08:43.757Z,27.07
2022-08-16T15:11:14.578Z,27.79
2022-08-16T15:13:42.709Z,28.22
2022-08-16T15:16:10.570Z,27.56
2022-08-16T15:18:39.305Z,26.65
2022-08-16T15:21:08.451Z,25.90
2022-08-16T15:23:36.978Z,26.20
2022-08-16T15:26:08.576Z,27.29
2022-08-16T15:28:38.111Z,27.84
2022-08-16T15:31:10.327Z,27.58
2022-08-16T15:33:51.024Z,26.48
2022-08-16T15:36:25.840Z,26.17
2022-08-16T15:39:06.781Z,27.05
2022-08-16T15:41:43.564Z,27.70
2022-08-16T15:44:22.373Z,27.65
2022-08-16T15:46:58.811Z,26.61
2022-08-16T15:49:37.369Z,25.99
2022-08-16T15:52:29.039Z,26.85
2022-08-16T15:55:23.719Z,27.57
2022-08-16T15:57:52.209Z,27.24
2022-08-16T16:00:20.994Z,26.23
2022-08-16T16:02:49.603Z,25.74
2022-08-16T16:05:19.558Z,26.53
2022-08-16T16:07:56.700Z,27.21
2022-08-16T16:10:37.497Z,27.59
2022-08-16T16:13:08.807Z,27.49
2022-08-16T16:15:44.048Z,26.47
2022-08-16T16:18:13.448Z,25.82
2022-08-16T16:20:58.342Z,26.38
2022-08-16T16:23:44.480Z,26.99
2022-08-16T16:26:21.885Z,27.24
2022-08-16T16:29:07.403Z,26.48
2022-08-16T16:31:37.030Z,25.60
2022-08-16T16:34:08.053Z,26.28
2022-08-16T16:36:39.850Z,27.04
2022-08-16T16:39:11.834Z,27.38
2022-08-16T16:41:40.578Z,26.97
2022-08-16T16:44:10.698Z,25.98
2022-08-16T16:46:56.689Z,25.53
2022-08-16T16:49:26.577Z,26.38
2022-08-16T16:51:55.266Z,27.01
2022-08-16T16:54:35.775Z,27.30
2022-08-16T16:57:04.267Z,27.30
2022-08-16T16:59:31.989Z,26.50
2022-08-16T17:02:41.160Z,25.67
2022-08-16T17:04:48.674Z,26.25
2022-08-16T17:07:18.052Z,26.94
2022-08-16T17:09:53.552Z,27.37
2022-08-16T17:12:24.724Z,27.53
2022-08-16T17:14:55.099Z,26.69
2022-08-16T17:17:25.153Z,25.62
2022-08-16T17:19:54.099Z,25.15
2022-08-16T17:22:23.473Z,25.96
2022-08-16T17:24:53.305Z,26.65
2022-08-16T17:27:32.858Z,26.93
2022-08-16T17:30:15.797Z,26.56
2022-08-16T17:32:54.539Z,25.45
2022-08-16T17:35:34.190Z,25.08
2022-08-16T17:38:09.308Z,26.04
2022-08-16T17:40:57.982Z,26.76
2022-08-16T17:43:32.744Z,27.16
2022-08-16T17:46:02.126Z,27.08
2022-08-16T17:48:31.266Z,26.04
2022-08-16T17:51:00.253Z,25.32
2022-08-16T17:53:28.017Z,25.97
2022-08-16T17:55:56.076Z,26.40
2022-08-16T17:58:24.472Z,26.76
2022-08-16T18:00:58.189Z,26.69
2022-08-16T18:04:07.604Z,25.78
2022-08-16T18:06:28.837Z,25.08
2022-08-16T18:09:02.601Z,25.81
2022-08-16T18:11:38.277Z,26.32
2022-08-16T18:14:11.027Z,26.76
2022-08-16T18:16:41.409Z,26.95
2022-08-16T18:19:10.579Z,27.17
2022-08-16T18:21:57.654Z,27.04
2022-08-16T18:24:28.630Z,25.78
2022-08-16T18:26:56.477Z,25.04
2022-08-16T18:29:45.237Z,25.83
2022-08-16T18:32:14.128Z,26.47
2022-08-16T18:34:42.837Z,26.77
2022-08-16T18:37:11.885Z,26.96
2022-08-16T18:39:40.183Z,27.05
2022-08-16T18:42:14.549Z,27.14
2022-08-16T18:44:44.253Z,27.31
2022-08-16T18:47:12.103Z,27.47
2022-08-16T18:49:39.924Z,27.35
2022-08-16T18:52:25.223Z,26.36
2022-08-16T18:55:01.953Z,25.26
2022-08-16T18:57:43.130Z,25.01
2022-08-16T19:00:15.388Z,26.06
2022-08-16T19:02:58.949Z,26.79
2022-08-16T19:05:31.144Z,27.14
2022-08-16T19:07:59.206Z,27.06
2022-08-16T19:10:27.608Z,26.06
2022-08-16T19:12:55.715Z,24.99
2022-08-16T19:15:28.622Z,24.57
2022-08-16T19:17:56.402Z,25.42
2022-08-16T19:20:28.224Z,26.09
2022-08-16T19:23:10.643Z,26.49
2022-08-16T19:25:48.602Z,26.70
2022-08-16T19:28:51.864Z,26.88
2022-08-16T19:31:28.983Z,27.05
2022-08-16T19:33:58.411Z,27.16
2022-08-16T19:36:33.774Z,27.05
2022-08-16T19:39:12.267Z,26.02
2022-08-16T19:41:46.153Z,24.96
2022-08-16T19:44:20.143Z,24.55
2022-08-16T19:46:49.215Z,25.47
2022-08-16T19:49:18.204Z,26.20
2022-08-16T19:51:47.933Z,26.55
2022-08-16T19:54:16.229Z,26.80
2022-08-16T19:56:44.430Z,26.99
2022-08-16T19:59:19.943Z,27.14
2022-08-16T20:01:52.797Z,27.02
2022-08-16T20:04:22.874Z,25.95
2022-08-16T20:06:53.677Z,24.82
2022-08-16T20:09:23.950Z,24.39
2022-08-16T20:11:53.706Z,25.27
2022-08-16T20:14:25.497Z,25.96
2022-08-16T20:16:59.721Z,26.35
2022-08-16T20:19:40.060Z,26.59
2022-08-16T20:22:52.500Z,26.76
2022-08-16T20:25:33.382Z,26.96
2022-08-16T20:28:09.810Z,27.12
2022-08-16T20:30:37.926Z,27.05
2022-08-16T20:33:14.426Z,26.05
2022-08-16T20:35:44.454Z,25.36
2022-08-16T20:38:13.425Z,26.15
2022-08-16T20:40:42.284Z,26.81
2022-08-16T20:43:14.757Z,27.19
2022-08-16T20:45:46.621Z,27.19
2022-08-16T20:48:15.417Z,26.18
2022-08-16T20:50:43.915Z,25.06
2022-08-16T20:53:11.908Z,24.61
2022-08-16T20:55:41.672Z,25.59
2022-08-16T20:58:09.360Z,26.43
2022-08-16T21:00:37.937Z,26.90
2022-08-16T21:03:09.454Z,27.16
2022-08-16T21:05:38.037Z,27.39
2022-08-16T21:08:28.714Z,27.33
2022-08-16T21:10:53.924Z,26.18
2022-08-16T21:13:21.856Z,25.14
2022-08-16T21:15:49.529Z,24.74
2022-08-16T21:18:17.447Z,25.70
2022-08-16T21:20:45.083Z,26.50
2022-08-16T21:23:12.812Z,26.94
2022-08-16T21:25:58.135Z,27.18
2022-08-16T21:28:41.101Z,26.93
2022-08-16T21:31:13.068Z,25.56
2022-08-16T21:33:42.701Z,24.41
2022-08-16T21:36:12.799Z,23.99
2022-08-16T21:38:40.791Z,25.02
2022-08-16T21:41:11.326Z,25.90
2022-08-16T21:43:39.941Z,26.38
2022-08-16T21:46:09.080Z,26.66
2022-08-16T21:48:40.716Z,26.81
2022-08-16T21:51:15.426Z,26.94
2022-08-16T21:53:44.669Z,26.47
2022-08-16T21:56:17.118Z,25.29
2022-08-16T21:58:46.366Z,24.60
2022-08-16T22:01:14.095Z,25.39
2022-08-16T22:03:43.389Z,26.09
2022-08-16T22:06:14.165Z,26.48
2022-08-16T22:08:48.855Z,26.70
2022-08-16T22:11:24.909Z,26.15
2022-08-16T22:13:58.169Z,24.95
2022-08-16T22:16:32.198Z,24.37
2022-08-16T22:19:02.141Z,25.30
2022-08-16T22:21:31.451Z,26.06
2022-08-16T22:24:00.133Z,26.47
2022-08-16T22:26:32.053Z,26.29
2022-08-16T22:29:11.078Z,25.18
2022-08-16T22:31:40.644Z,24.13
2022-08-16T22:34:09.094Z,23.82
2022-08-16T22:36:38.418Z,24.78
2022-08-16T22:39:10.404Z,25.52
2022-08-16T22:41:42.391Z,25.94
2022-08-16T22:44:10.420Z,26.24
2022-08-16T22:46:39.001Z,26.41
2022-08-16T22:49:08.195Z,25.84
2022-08-16T22:51:37.861Z,24.64
2022-08-16T22:54:44.254Z,24.09
2022-08-16T22:56:55.097Z,25.05
2022-08-16T22:59:25.007Z,25.69
2022-08-16T23:01:53.543Z,26.02
2022-08-16T23:04:24.017Z,25.98
2022-08-16T23:06:52.784Z,24.95
2022-08-16T23:09:20.919Z,23.89
2022-08-16T23:11:48.901Z,23.50
2022-08-16T23:14:17.475Z,24.45
2022-08-16T23:16:47.139Z,25.19
2022-08-16T23:19:16.833Z,25.59
2022-08-16T23:21:47.238Z,25.83
2022-08-16T23:24:20.471Z,25.54
2022-08-16T23:26:49.379Z,24.34
2022-08-16T23:29:24.732Z,23.31
2022-08-16T23:31:58.265Z,23.00
2022-08-16T23:34:29.014Z,24.08
2022-08-16T23:36:57.213Z,24.91
2022-08-16T23:39:25.775Z,25.41
2022-08-16T23:41:53.625Z,25.76
2022-08-16T23:44:55.470Z,25.97
2022-08-16T23:47:09.675Z,25.77
2022-08-16T23:49:56.344Z,24.66
2022-08-16T23:52:40.659Z,23.48
2022-08-16T23:55:14.221Z,23.21
2022-08-16T23:57:45.792Z,24.26
